createdAt,value
2023-05-21T00:02:05.592Z,13.15
2023-05-21T00:04:36.759Z,12.38
2023-05-21T00:07:08.066Z,12.25
2023-05-21T00:09:42.208Z,12.73
2023-05-21T00:12:13.048Z,11.18
2023-05-21T00:14:44.187Z,12.07
2023-05-21T00:17:14.874Z,11.57
2023-05-21T00:19:46.256Z,12.45
2023-05-21T00:22:17.391Z,11.13
2023-05-21T00:24:48.266Z,11.10
2023-05-21T00:27:19.175Z,11.13
2023-05-21T00:29:50.058Z,10.88
2023-05-21T00:32:20.982Z,10.75
2023-05-21T00:34:51.860Z,11.18
2023-05-21T00:37:23.252Z,10.75
2023-05-21T00:39:54.911Z,11.33
2023-05-21T00:42:28.826Z,9.48
2023-05-21T00:45:00.219Z,9.25
2023-05-21T00:47:31.158Z,8.82
2023-05-21T00:50:03.416Z,9.10
2023-05-21T00:52:34.704Z,9.68
2023-05-21T00:55:06.073Z,10.32
2023-05-21T00:57:38.699Z,11.30
2023-05-21T01:00:12.016Z,12.05
2023-05-21T01:02:43.592Z,11.85
2023-05-21T01:05:16.733Z,11.93
2023-05-21T01:07:48.141Z,10.60
2023-05-21T01:10:19.441Z,10.50
2023-05-21T01:12:50.630Z,10.85
2023-05-21T01:15:22.106Z,11.00
2023-05-21T01:17:53.893Z,10.68
2023-05-21T01:20:26.227Z,11.05
2023-05-21T01:22:57.999Z,15.40
2023-05-21T01:25:29.123Z,13.48
2023-05-21T01:27:59.780Z,13.93
2023-05-21T01:30:31.004Z,13.73
2023-05-21T01:33:06.522Z,13.23
2023-05-21T01:35:50.621Z,12.77
2023-05-21T01:38:28.562Z,13.25
2023-05-21T01:41:12.256Z,13.75
2023-05-21T01:43:45.855Z,12.27
2023-05-21T01:46:23.392Z,13.15
2023-05-21T01:48:56.990Z,13.07
2023-05-21T01:51:29.055Z,12.80
2023-05-21T01:53:59.891Z,13.27
2023-05-21T01:56:30.951Z,13.13
2023-05-21T01:59:02.295Z,13.55
2023-05-21T02:01:33.439Z,12.40
2023-05-21T02:04:04.322Z,13.05
2023-05-21T02:06:37.370Z,13.30
2023-05-21T02:09:08.072Z,12.55
2023-05-21T02:11:39.170Z,12.15
2023-05-21T02:14:11.880Z,12.90
2023-05-21T02:16:43.631Z,11.77
2023-05-21T02:19:14.656Z,12.18
2023-05-21T02:21:46.088Z,11.57
2023-05-21T02:24:16.924Z,12.07
2023-05-21T02:26:49.856Z,11.13
2023-05-21T02:29:20.784Z,11.25
2023-05-21T02:31:52.760Z,11.38
2023-05-21T02:34:24.068Z,11.77
2023-05-21T02:36:55.943Z,9.20
2023-05-21T02:39:28.475Z,7.70
2023-05-21T02:41:59.833Z,8.13
2023-05-21T02:44:31.012Z,7.60
2023-05-21T02:47:01.972Z,7.47
2023-05-21T02:49:32.877Z,7.20
2023-05-21T02:52:04.219Z,7.20
2023-05-21T02:54:35.100Z,7.80
2023-05-21T02:57:06.060Z,7.87
2023-05-21T02:59:36.993Z,8.23
2023-05-21T03:02:08.779Z,7.97
2023-05-21T03:07:20.442Z,7.45
2023-05-21T03:09:51.335Z,7.57
2023-05-21T03:12:22.528Z,7.97
2023-05-21T03:14:53.414Z,7.65
2023-05-21T03:17:24.776Z,7.85
2023-05-21T03:19:56.113Z,7.43
2023-05-21T03:22:27.255Z,8.07
2023-05-21T03:24:59.780Z,8.05
2023-05-21T03:27:49.876Z,7.63
2023-05-21T03:30:43.527Z,8.05
2023-05-21T03:33:35.152Z,7.50
2023-05-21T03:36:17.655Z,7.75
2023-05-21T03:38:49.023Z,7.22
2023-05-21T03:41:20.152Z,7.80
2023-05-21T03:43:56.026Z,7.13
2023-05-21T03:46:31.583Z,7.07
2023-05-21T03:49:24.964Z,7.88
2023-05-21T03:51:58.160Z,7.68
2023-05-21T03:54:30.207Z,8.38
2023-05-21T03:57:06.326Z,8.35
2023-05-21T03:59:38.631Z,8.15
2023-05-21T04:02:09.610Z,8.05
2023-05-21T04:04:40.970Z,7.93
2023-05-21T04:07:15.976Z,7.88
2023-05-21T04:09:48.184Z,8.20
2023-05-21T04:14:53.009Z,7.68
2023-05-21T04:17:23.912Z,8.35
2023-05-21T04:19:55.763Z,8.95
2023-05-21T04:22:28.034Z,7.28
2023-05-21T04:25:01.029Z,7.25
2023-05-21T04:27:39.926Z,7.00
2023-05-21T04:30:14.664Z,7.40
2023-05-21T04:32:49.663Z,7.95
2023-05-21T04:35:21.096Z,8.23
2023-05-21T04:37:52.208Z,7.80
2023-05-21T04:40:25.633Z,6.55
2023-05-21T04:42:58.454Z,7.82
2023-05-21T04:45:30.807Z,7.28
2023-05-21T04:48:04.285Z,7.63
2023-05-21T04:50:37.720Z,6.18
2023-05-21T04:53:08.862Z,5.80
2023-05-21T04:55:41.299Z,5.97
2023-05-21T04:58:14.899Z,4.80
2023-05-21T05:00:48.151Z,5.15
2023-05-21T05:03:19.602Z,4.68
2023-05-21T05:05:50.909Z,4.57
2023-05-21T05:08:21.875Z,3.93
2023-05-21T05:10:53.146Z,3.85
2023-05-21T05:13:24.184Z,3.87
2023-05-21T05:15:55.716Z,3.47
2023-05-21T05:18:26.555Z,3.80
2023-05-21T05:23:29.177Z,3.95
2023-05-21T05:28:31.380Z,5.07
2023-05-21T05:31:03.551Z,4.97
2023-05-21T05:33:35.945Z,5.78
2023-05-21T05:36:07.334Z,5.43
2023-05-21T05:38:43.469Z,4.60
2023-05-21T05:41:16.035Z,4.70
2023-05-21T05:43:48.184Z,4.18
2023-05-21T05:46:22.101Z,4.03
2023-05-21T05:48:55.984Z,4.57
2023-05-21T05:51:27.361Z,3.70
2023-05-21T05:53:59.688Z,4.22
2023-05-21T05:56:30.807Z,4.03
2023-05-21T05:59:02.043Z,3.95
2023-05-21T06:01:34.251Z,3.85
2023-05-21T06:04:05.340Z,3.67
2023-05-21T06:06:38.145Z,3.33
2023-05-21T06:09:09.057Z,3.67
2023-05-21T06:11:40.473Z,3.50
2023-05-21T06:14:11.431Z,3.50
2023-05-21T06:16:42.918Z,3.08
2023-05-21T06:19:14.037Z,3.47
2023-05-21T06:24:16.262Z,2.90
2023-05-21T06:26:47.865Z,2.83
2023-05-21T06:29:18.960Z,3.10
2023-05-21T06:31:53.418Z,2.63
2023-05-21T06:34:24.585Z,3.10
2023-05-21T06:36:57.370Z,2.95
2023-05-21T06:39:28.731Z,2.70
2023-05-21T06:42:01.455Z,2.95
2023-05-21T06:44:56.119Z,3.53
2023-05-21T06:47:34.803Z,3.17
2023-05-21T06:50:11.387Z,2.70
2023-05-21T06:53:04.003Z,2.97
2023-05-21T06:55:35.729Z,3.15
2023-05-21T06:58:21.337Z,3.50
2023-05-21T07:00:52.930Z,3.58
2023-05-21T07:03:25.909Z,3.03
2023-05-21T07:05:57.070Z,3.40
2023-05-21T07:08:28.647Z,2.92
2023-05-21T07:13:32.069Z,2.55
2023-05-21T07:16:03.090Z,3.38
2023-05-21T07:18:39.141Z,3.30
2023-05-21T07:21:10.200Z,3.20
2023-05-21T07:23:41.879Z,3.45
2023-05-21T07:26:14.167Z,4.90
2023-05-21T07:28:46.530Z,5.25
2023-05-21T07:31:17.676Z,5.60
2023-05-21T07:33:52.063Z,5.93
2023-05-21T07:36:28.057Z,5.55
2023-05-21T07:38:59.486Z,5.32
2023-05-21T07:41:32.830Z,5.47
2023-05-21T07:44:07.480Z,6.10
2023-05-21T07:46:45.073Z,5.90
2023-05-21T07:49:18.161Z,5.75
2023-05-21T07:51:52.215Z,6.20
2023-05-21T07:54:25.951Z,5.47
2023-05-21T07:56:58.606Z,5.60
2023-05-21T07:59:52.560Z,5.70
2023-05-21T08:02:24.679Z,5.50
2023-05-21T08:04:56.515Z,5.72
2023-05-21T08:07:29.109Z,6.90
2023-05-21T08:10:02.623Z,6.15
2023-05-21T08:12:36.243Z,5.90
2023-05-21T08:15:09.049Z,5.68
2023-05-21T08:17:45.649Z,5.55
2023-05-21T08:20:17.915Z,5.78
2023-05-21T08:22:49.776Z,6.10
2023-05-21T08:25:21.469Z,6.22
2023-05-21T08:27:54.507Z,6.35
2023-05-21T08:30:26.078Z,6.15
2023-05-21T08:32:57.311Z,5.82
2023-05-21T08:35:29.951Z,6.18
2023-05-21T08:38:07.718Z,6.68
2023-05-21T08:40:57.784Z,5.40
2023-05-21T08:43:33.207Z,5.63
2023-05-21T08:46:07.152Z,5.55
2023-05-21T08:48:41.300Z,5.53
2023-05-21T08:51:13.209Z,5.57
2023-05-21T08:53:52.951Z,6.38
2023-05-21T08:56:26.154Z,6.35
2023-05-21T08:59:01.310Z,6.28
2023-05-21T09:01:39.705Z,5.78
2023-05-21T09:04:30.137Z,6.13
2023-05-21T09:07:04.198Z,5.40
2023-05-21T09:10:10.348Z,5.97
2023-05-21T09:12:42.173Z,5.68
2023-05-21T09:15:13.953Z,5.93
2023-05-21T09:17:50.186Z,6.00
2023-05-21T09:20:39.371Z,6.55
2023-05-21T09:23:18.002Z,5.93
2023-05-21T09:25:51.129Z,6.32
2023-05-21T09:28:41.079Z,5.63
2023-05-21T09:31:12.164Z,5.80
2023-05-21T09:33:53.004Z,5.90
2023-05-21T09:36:25.219Z,5.50
2023-05-21T09:38:59.220Z,5.47
2023-05-21T09:41:39.635Z,5.70
2023-05-21T09:44:12.884Z,5.72
2023-05-21T09:46:44.026Z,5.45
2023-05-21T09:49:26.294Z,5.40
2023-05-21T09:51:59.313Z,5.97
2023-05-21T09:54:35.276Z,5.82
2023-05-21T09:57:06.521Z,5.50
2023-05-21T09:59:43.817Z,6.22
2023-05-21T10:02:23.103Z,7.20
2023-05-21T10:04:58.395Z,7.10
2023-05-21T10:07:29.761Z,7.05
2023-05-21T10:10:05.324Z,7.85
2023-05-21T10:12:37.113Z,5.15
2023-05-21T10:15:13.351Z,4.32
2023-05-21T10:17:47.446Z,4.95
2023-05-21T10:20:18.901Z,4.88
2023-05-21T10:22:52.159Z,4.50
2023-05-21T10:25:23.900Z,4.30
2023-05-21T10:27:57.653Z,4.97
2023-05-21T10:30:29.074Z,4.50
2023-05-21T10:33:01.835Z,5.00
2023-05-21T10:35:34.099Z,4.78
2023-05-21T10:38:06.791Z,4.53
2023-05-21T10:40:38.496Z,6.88
2023-05-21T10:43:40.861Z,7.00
2023-05-21T10:49:34.626Z,6.47
2023-05-21T10:52:34.532Z,6.70
2023-05-21T10:55:22.027Z,7.00
2023-05-21T10:57:56.470Z,6.90
2023-05-21T11:00:28.989Z,6.68
2023-05-21T11:03:03.248Z,7.22
2023-05-21T11:06:07.883Z,6.80
2023-05-21T11:08:40.248Z,11.80
2023-05-21T11:13:51.151Z,7.47
2023-05-21T11:16:27.326Z,7.20
2023-05-21T11:19:02.072Z,7.63
2023-05-21T11:21:35.625Z,7.30
2023-05-21T11:24:09.829Z,6.78
2023-05-21T11:26:50.148Z,7.47
2023-05-21T11:29:22.420Z,7.00
2023-05-21T11:32:07.156Z,7.43
2023-05-21T11:34:47.317Z,7.55
2023-05-21T11:37:30.818Z,7.90
2023-05-21T11:40:29.659Z,7.70
2023-05-21T11:43:00.606Z,8.10
2023-05-21T11:45:34.369Z,8.43
2023-05-21T11:48:06.839Z,8.38
2023-05-21T11:50:39.046Z,9.43
2023-05-21T11:55:49.078Z,9.32
2023-05-21T11:58:21.257Z,9.65
2023-05-21T12:00:53.515Z,10.52
2023-05-21T12:06:08.082Z,10.63
2023-05-21T12:08:39.825Z,12.55
2023-05-21T12:13:41.543Z,10.88
2023-05-21T12:16:13.952Z,9.32
2023-05-21T12:18:44.976Z,8.30
2023-05-21T12:21:17.024Z,7.78
2023-05-21T12:23:48.084Z,7.38
2023-05-21T12:26:19.496Z,8.10
2023-05-21T12:28:51.416Z,8.43
2023-05-21T12:31:28.796Z,8.30
2023-05-21T12:33:59.800Z,8.07
2023-05-21T12:36:33.333Z,8.60
2023-05-21T12:39:04.278Z,8.20
2023-05-21T12:41:35.434Z,8.13
2023-05-21T12:44:07.236Z,8.05
2023-05-21T12:46:38.780Z,8.07
2023-05-21T12:49:10.300Z,8.40
2023-05-21T12:54:15.960Z,8.00
2023-05-21T12:56:48.465Z,10.60
2023-05-21T13:01:50.601Z,9.75
2023-05-21T13:04:22.820Z,10.30
2023-05-21T13:06:57.621Z,9.88
2023-05-21T13:09:28.650Z,9.90
2023-05-21T13:11:59.860Z,9.48
2023-05-21T13:14:30.974Z,10.07
2023-05-21T13:17:02.643Z,9.18
2023-05-21T13:19:34.127Z,9.13
2023-05-21T13:22:05.877Z,9.38
2023-05-21T13:24:36.838Z,9.30
2023-05-21T13:27:08.538Z,8.20
2023-05-21T13:29:39.624Z,7.83
2023-05-21T13:32:14.014Z,8.32
2023-05-21T13:34:45.338Z,7.75
2023-05-21T13:37:17.046Z,7.13
2023-05-21T13:39:48.731Z,7.35
2023-05-21T13:42:21.229Z,6.70
2023-05-21T13:44:57.192Z,7.15
2023-05-21T13:47:28.782Z,6.75
2023-05-21T13:49:59.834Z,7.47
2023-05-21T13:52:33.097Z,7.80
2023-05-21T13:55:04.459Z,7.68
2023-05-21T13:57:36.538Z,7.30
2023-05-21T14:00:10.808Z,7.50
2023-05-21T14:02:45.175Z,7.18
2023-05-21T14:05:16.710Z,8.20
2023-05-21T14:07:49.687Z,7.63
2023-05-21T14:10:21.916Z,7.28
2023-05-21T14:12:55.881Z,7.80
2023-05-21T14:15:30.666Z,9.80
2023-05-21T14:18:02.467Z,10.60
2023-05-21T14:20:33.762Z,12.23
2023-05-21T14:23:06.977Z,17.80
2023-05-21T14:25:39.633Z,16.88
2023-05-21T14:28:11.145Z,19.30
2023-05-21T14:30:42.266Z,22.27
2023-05-21T14:33:14.632Z,23.87
2023-05-21T14:38:18.416Z,27.65
2023-05-21T14:40:49.590Z,23.27
2023-05-21T14:43:21.134Z,21.73
2023-05-21T14:45:52.987Z,19.60
2023-05-21T14:48:26.742Z,17.55
2023-05-21T14:50:59.018Z,17.13
2023-05-21T14:53:30.230Z,14.82
2023-05-21T14:56:02.604Z,15.48
2023-05-21T14:58:34.144Z,13.30
2023-05-21T15:01:08.345Z,12.68
2023-05-21T15:03:43.920Z,12.63
2023-05-21T15:06:15.251Z,11.52
2023-05-21T15:08:49.807Z,11.02
2023-05-21T15:11:22.942Z,11.10
2023-05-21T15:13:57.763Z,9.38
2023-05-21T15:16:30.122Z,9.55
2023-05-21T15:19:01.629Z,9.10
2023-05-21T15:21:34.182Z,9.25
2023-05-21T15:24:07.245Z,8.30
2023-05-21T15:26:38.509Z,9.13
2023-05-21T15:29:09.901Z,8.18
2023-05-21T15:31:43.916Z,8.25
2023-05-21T15:34:19.313Z,7.90
2023-05-21T15:36:56.682Z,8.15
2023-05-21T15:39:29.008Z,7.30
2023-05-21T15:42:02.106Z,8.38
2023-05-21T15:44:34.750Z,7.85
2023-05-21T15:47:08.427Z,6.90
2023-05-21T15:49:39.830Z,7.15
2023-05-21T15:52:11.005Z,6.38
2023-05-21T15:54:43.734Z,6.30
2023-05-21T15:57:16.007Z,6.00
2023-05-21T15:59:48.116Z,6.25
2023-05-21T16:02:19.233Z,6.53
2023-05-21T16:04:53.202Z,6.65
2023-05-21T16:07:26.059Z,5.93
2023-05-21T16:09:57.491Z,5.80
2023-05-21T16:12:28.885Z,6.07
2023-05-21T16:15:00.560Z,5.07
2023-05-21T16:17:32.342Z,5.75
2023-05-21T16:20:03.762Z,5.90
2023-05-21T16:22:35.036Z,6.07
2023-05-21T16:25:07.238Z,4.55
2023-05-21T16:27:39.435Z,5.40
2023-05-21T16:30:12.264Z,5.28
2023-05-21T16:32:47.384Z,5.88
2023-05-21T16:35:18.660Z,4.63
2023-05-21T16:37:54.457Z,5.07
2023-05-21T16:40:26.344Z,5.80
2023-05-21T16:42:57.527Z,5.28
2023-05-21T16:45:29.514Z,4.90
2023-05-21T16:48:03.535Z,5.20
2023-05-21T16:50:35.393Z,5.03
2023-05-21T16:53:09.114Z,5.47
2023-05-21T16:55:40.773Z,5.07
2023-05-21T16:58:14.946Z,4.72
2023-05-21T17:00:46.610Z,5.55
2023-05-21T17:03:17.835Z,5.15
2023-05-21T17:05:49.394Z,5.07
2023-05-21T17:08:21.497Z,5.00
2023-05-21T17:10:52.973Z,5.15
2023-05-21T17:13:24.087Z,4.80
2023-05-21T17:15:55.415Z,5.10
2023-05-21T17:18:26.351Z,4.82
2023-05-21T17:21:00.178Z,4.73
2023-05-21T17:23:31.059Z,5.10
2023-05-21T17:26:02.977Z,5.57
2023-05-21T17:28:33.939Z,5.10
2023-05-21T17:31:05.894Z,4.70
2023-05-21T17:33:37.396Z,4.88
2023-05-21T17:36:08.779Z,5.05
2023-05-21T17:38:39.803Z,5.05
2023-05-21T17:41:11.244Z,5.27
2023-05-21T17:43:42.279Z,5.13
2023-05-21T17:46:18.018Z,4.57
2023-05-21T17:48:49.188Z,4.65
2023-05-21T17:51:20.272Z,4.80
2023-05-21T17:53:51.560Z,4.50
2023-05-21T17:56:22.983Z,4.70
2023-05-21T17:58:53.864Z,4.55
2023-05-21T18:01:25.350Z,4.87
2023-05-21T18:03:56.354Z,4.85
2023-05-21T18:06:27.628Z,4.65
2023-05-21T18:08:59.197Z,4.57
2023-05-21T18:11:30.889Z,4.90
2023-05-21T18:14:02.109Z,4.13
2023-05-21T18:16:33.099Z,4.67
2023-05-21T18:19:07.069Z,4.72
2023-05-21T18:21:39.035Z,3.97
2023-05-21T18:24:11.134Z,5.05
2023-05-21T18:26:42.135Z,4.43
2023-05-21T18:29:14.450Z,4.88
2023-05-21T18:31:48.624Z,4.80
2023-05-21T18:34:19.334Z,4.40
2023-05-21T18:36:50.785Z,4.40
2023-05-21T18:39:25.882Z,4.45
2023-05-21T18:44:32.198Z,4.65
2023-05-21T18:47:03.702Z,4.50
2023-05-21T18:49:39.385Z,4.40
2023-05-21T18:52:10.469Z,4.30
2023-05-21T18:54:41.210Z,4.75
2023-05-21T18:57:12.301Z,4.47
2023-05-21T18:59:42.953Z,4.50
2023-05-21T19:02:14.335Z,3.88
2023-05-21T19:04:45.529Z,4.53
2023-05-21T19:07:17.280Z,4.38
2023-05-21T19:09:50.161Z,4.13
2023-05-21T19:12:21.168Z,3.85
2023-05-21T19:14:51.875Z,4.88
2023-05-21T19:17:22.961Z,4.00
2023-05-21T19:19:57.440Z,4.40
2023-05-21T19:22:29.566Z,4.38
2023-05-21T19:25:00.877Z,4.30
2023-05-21T19:27:31.813Z,4.20
2023-05-21T19:30:02.454Z,4.85
2023-05-21T19:32:33.384Z,4.30
2023-05-21T19:35:06.012Z,4.18
2023-05-21T19:37:37.560Z,3.92
2023-05-21T19:40:09.187Z,4.53
2023-05-21T19:42:40.168Z,4.60
2023-05-21T19:45:11.573Z,3.95
2023-05-21T19:47:42.552Z,4.50
2023-05-21T19:50:13.519Z,4.38
2023-05-21T19:52:44.488Z,4.50
2023-05-21T19:55:15.477Z,4.80
2023-05-21T19:57:46.470Z,5.30
2023-05-21T20:00:17.701Z,4.00
2023-05-21T20:02:49.414Z,4.18
2023-05-21T20:05:21.455Z,5.35
2023-05-21T20:07:52.505Z,4.82
2023-05-21T20:10:23.237Z,4.25
2023-05-21T20:12:54.313Z,4.38
2023-05-21T20:15:25.033Z,4.65
2023-05-21T20:17:57.282Z,4.50
2023-05-21T20:20:30.629Z,4.68
2023-05-21T20:23:04.764Z,4.10
2023-05-21T20:25:35.456Z,4.60
2023-05-21T20:28:06.936Z,4.57
2023-05-21T20:30:55.074Z,4.63
2023-05-21T20:33:26.864Z,4.35
2023-05-21T20:35:57.682Z,4.50
2023-05-21T20:38:29.293Z,3.97
2023-05-21T20:41:00.127Z,4.10
2023-05-21T20:43:31.232Z,4.23
2023-05-21T20:46:01.972Z,4.90
2023-05-21T20:48:36.742Z,4.43
2023-05-21T20:51:07.470Z,4.63
2023-05-21T20:53:38.659Z,4.68
2023-05-21T20:56:10.594Z,4.28
2023-05-21T20:58:41.846Z,4.38
2023-05-21T21:01:12.654Z,4.45
2023-05-21T21:03:47.001Z,4.70
2023-05-21T21:06:21.564Z,4.50
2023-05-21T21:08:52.428Z,4.97
2023-05-21T21:11:23.218Z,5.00
2023-05-21T21:13:54.278Z,5.05
2023-05-21T21:16:25.003Z,5.00
2023-05-21T21:18:55.925Z,4.60
2023-05-21T21:21:26.835Z,5.10
2023-05-21T21:23:57.667Z,5.18
2023-05-21T21:26:28.579Z,5.25
2023-05-21T21:29:00.776Z,5.90
2023-05-21T21:31:32.218Z,5.35
2023-05-21T21:34:03.386Z,5.53
2023-05-21T21:36:34.143Z,5.88
2023-05-21T21:39:05.170Z,5.85
2023-05-21T21:41:35.899Z,6.03
2023-05-21T21:44:06.943Z,5.90
2023-05-21T21:46:37.572Z,5.78
2023-05-21T21:49:08.522Z,6.15
2023-05-21T21:51:39.410Z,5.25
2023-05-21T21:54:10.310Z,5.57
2023-05-21T21:56:41.033Z,6.20
2023-05-21T21:59:11.901Z,6.57
2023-05-21T22:01:42.782Z,6.28
2023-05-21T22:04:14.271Z,6.38
2023-05-21T22:06:46.785Z,6.60
2023-05-21T22:09:18.877Z,6.88
2023-05-21T22:11:50.412Z,6.68
2023-05-21T22:14:21.351Z,6.47
2023-05-21T22:16:54.459Z,7.10
2023-05-21T22:19:25.545Z,6.43
2023-05-21T22:21:56.523Z,6.72
2023-05-21T22:24:32.695Z,7.20
2023-05-21T22:27:04.028Z,7.13
2023-05-21T22:29:34.940Z,6.35
2023-05-21T22:32:05.623Z,7.35
2023-05-21T22:34:36.388Z,7.47
2023-05-21T22:37:07.027Z,6.88
2023-05-21T22:39:37.934Z,7.90
2023-05-21T22:42:08.851Z,8.18
2023-05-21T22:44:39.843Z,6.85
2023-05-21T22:47:11.498Z,8.02
2023-05-21T22:49:42.619Z,8.10
2023-05-21T22:52:13.490Z,8.15
2023-05-21T22:54:44.283Z,7.60
2023-05-21T22:57:15.345Z,8.00
2023-05-21T22:59:46.765Z,8.90
2023-05-21T23:02:18.012Z,9.18
2023-05-21T23:04:50.647Z,9.32
2023-05-21T23:07:21.374Z,9.93
2023-05-21T23:09:53.095Z,10.60
2023-05-21T23:12:23.797Z,12.33
2023-05-21T23:14:54.853Z,13.50
2023-05-21T23:17:25.686Z,15.20
2023-05-21T23:19:57.490Z,14.93
2023-05-21T23:22:28.176Z,13.85
2023-05-21T23:24:59.102Z,14.25
2023-05-21T23:27:30.549Z,13.68
2023-05-21T23:30:01.885Z,14.35
2023-05-21T23:32:34.607Z,13.23
2023-05-21T23:35:05.893Z,13.23
2023-05-21T23:37:36.606Z,12.60
2023-05-21T23:40:08.240Z,12.88
2023-05-21T23:42:39.055Z,12.93
2023-05-21T23:45:10.247Z,16.73
2023-05-21T23:47:41.076Z,18.77
2023-05-21T23:50:12.356Z,19.20
2023-05-21T23:52:43.226Z,18.92
2023-05-21T23:55:15.969Z,18.63
2023-05-21T23:57:46.783Z,19.88
